Savage, Montana
Current Conditions -  °F | °C
As of 4:55 PM on Saturday 25 Oct 2014 (Local Time) from KSDY Reporting Station
Clear Clear  
Wind Chill: 64°   Ceiling: Unl
Heat Index: 64°   Visibility: 10mi
Dew Point: 30°   Wind: 13mph
Humidity: 28%   Direction: 100°E
Pressure: 29.93"   Gusts: NA
Location:  47.46°N, 104.35°W
Report Text: KSDY 252255Z AUTO 10011KT 10SM CLR 18/M01 A2993 RMK AO1
Loading
Personal Weather Stations






























Interactive Weather Map
Tropical Storm Tracking
New forecast layout! Learn more

10-Day Weather Forecast

Advertisements
Track Severe Weather on mobile